sensor_id;sensor_type;location;lat;lon;timestamp;pressure;altitude;pressure_sealevel;temperature;humidity
6938;BME280;40040;42.706;23.372;2022-07-25T00:00:31;150449.88;;;25.43;76.98
6938;BME280;40040;42.706;23.372;2022-07-25T00:02:58;150467.34;;;25.50;76.42
6938;BME280;40040;42.706;23.372;2022-07-25T00:05:25;150467.34;;;25.50;76.76
6938;BME280;40040;42.706;23.372;2022-07-25T00:07:52;150467.34;;;25.50;76.76
6938;BME280;40040;42.706;23.372;2022-07-25T00:10:19;150479.81;;;25.55;76.26
6938;BME280;40040;42.706;23.372;2022-07-25T00:12:46;150479.81;;;25.55;76.76
6938;BME280;40040;42.706;23.372;2022-07-25T00:15:15;150491.00;;;25.59;76.12
6938;BME280;40040;42.706;23.372;2022-07-25T00:17:42;150493.53;;;25.61;75.98
6938;BME280;40040;42.706;23.372;2022-07-25T00:20:09;150481.06;;;25.55;75.20
6938;BME280;40040;42.706;23.372;2022-07-25T00:22:37;150508.47;;;25.67;74.66
6938;BME280;40040;42.706;23.372;2022-07-25T00:25:04;150502.25;;;25.64;75.02
6938;BME280;40040;42.706;23.372;2022-07-25T00:27:31;150501.00;;;25.64;74.35
6938;BME280;40040;42.706;23.372;2022-07-25T00:29:58;150506.00;;;25.66;72.87
6938;BME280;40040;42.706;23.372;2022-07-25T00:32:26;150510.97;;;25.68;73.16
6938;BME280;40040;42.706;23.372;2022-07-25T00:34:53;150501.00;;;25.64;72.80
6938;BME280;40040;42.706;23.372;2022-07-25T00:37:20;150499.72;;;25.63;73.07
6938;BME280;40040;42.706;23.372;2022-07-25T00:39:47;150478.53;;;25.54;73.56
6938;BME280;40040;42.706;23.372;2022-07-25T00:42:14;150457.34;;;25.46;73.81
6938;BME280;40040;42.706;23.372;2022-07-25T00:44:41;150449.88;;;25.43;73.42
6938;BME280;40040;42.706;23.372;2022-07-25T00:47:08;150442.41;;;25.40;73.22
6938;BME280;40040;42.706;23.372;2022-07-25T00:49:36;150437.41;;;25.38;73.92
6938;BME280;40040;42.706;23.372;2022-07-25T00:52:03;150438.69;;;25.38;73.88
6938;BME280;40040;42.706;23.372;2022-07-25T00:54:30;150427.38;;;25.34;74.32
6938;BME280;40040;42.706;23.372;2022-07-25T00:56:58;150409.94;;;25.27;74.61
6938;BME280;40040;42.706;23.372;2022-07-25T00:59:24;150327.66;;;24.94;75.13
6938;BME280;40040;42.706;23.372;2022-07-25T01:01:52;150370.03;;;25.11;75.74
6938;BME280;40040;42.706;23.372;2022-07-25T01:04:19;150262.78;;;24.68;76.19
6938;BME280;40040;42.706;23.372;2022-07-25T01:06:47;150332.66;;;24.96;76.71
6938;BME280;40040;42.706;23.372;2022-07-25T01:09:14;150320.19;;;24.91;77.11
6938;BME280;40040;42.706;23.372;2022-07-25T01:11:41;150317.66;;;24.90;76.87
6938;BME280;40040;42.706;23.372;2022-07-25T01:14:08;150307.72;;;24.86;77.27
6938;BME280;40040;42.706;23.372;2022-07-25T01:16:35;150302.72;;;24.84;77.31
6938;BME280;40040;42.706;23.372;2022-07-25T01:19:02;150300.22;;;24.83;77.75
6938;BME280;40040;42.706;23.372;2022-07-25T01:21:30;150306.47;;;24.85;77.04
6938;BME280;40040;42.706;23.372;2022-07-25T01:23:57;150212.97;;;24.47;77.14
6938;BME280;40040;42.706;23.372;2022-07-25T01:26:24;150320.19;;;24.91;76.34
6938;BME280;40040;42.706;23.372;2022-07-25T01:28:51;150320.19;;;24.91;77.06
6938;BME280;40040;42.706;23.372;2022-07-25T01:31:19;150321.44;;;24.91;76.66
6938;BME280;40040;42.706;23.372;2022-07-25T01:33:46;150341.38;;;24.99;76.29
6938;BME280;40040;42.706;23.372;2022-07-25T01:36:13;150345.09;;;25.01;76.42
6938;BME280;40040;42.706;23.372;2022-07-25T01:38:41;150352.56;;;25.04;75.93
6938;BME280;40040;42.706;23.372;2022-07-25T01:41:08;150350.09;;;25.03;76.27
6938;BME280;40040;42.706;23.372;2022-07-25T01:43:35;150355.09;;;25.05;76.78
6938;BME280;40040;42.706;23.372;2022-07-25T01:46:02;150360.09;;;25.07;76.41
6938;BME280;40040;42.706;23.372;2022-07-25T01:48:28;150355.09;;;25.05;76.42
6938;BME280;40040;42.706;23.372;2022-07-25T01:50:55;150360.09;;;25.07;77.00
6938;BME280;40040;42.706;23.372;2022-07-25T01:53:22;150362.56;;;25.08;75.86
6938;BME280;40040;42.706;23.372;2022-07-25T01:55:50;150372.53;;;25.12;75.68
6938;BME280;40040;42.706;23.372;2022-07-25T01:58:17;150380.00;;;25.15;76.00
6938;BME280;40040;42.706;23.372;2022-07-25T02:00:44;150375.00;;;25.13;76.72
6938;BME280;40040;42.706;23.372;2022-07-25T02:03:11;150361.28;;;25.07;77.09
6938;BME280;40040;42.706;23.372;2022-07-25T02:05:57;150307.72;;;24.86;77.68
6938;BME280;40040;42.706;23.372;2022-07-25T02:08:24;150317.66;;;24.90;78.14
6938;BME280;40040;42.706;23.372;2022-07-25T02:10:53;150297.75;;;24.82;78.73
6938;BME280;40040;42.706;23.372;2022-07-25T02:13:19;150291.53;;;24.79;79.18
6938;BME280;40040;42.706;23.372;2022-07-25T02:15:46;150287.75;;;24.78;80.12
6938;BME280;40040;42.706;23.372;2022-07-25T02:18:13;150274.09;;;24.72;79.51
6938;BME280;40040;42.706;23.372;2022-07-25T02:20:40;150284.03;;;24.76;79.18
6938;BME280;40040;42.706;23.372;2022-07-25T02:23:07;150282.81;;;24.76;79.18
6938;BME280;40040;42.706;23.372;2022-07-25T02:25:34;150281.56;;;24.75;79.59
6938;BME280;40040;42.706;23.372;2022-07-25T02:28:03;150277.81;;;24.74;79.54
6938;BME280;40040;42.706;23.372;2022-07-25T02:30:29;150265.31;;;24.69;80.55
6938;BME280;40040;42.706;23.372;2022-07-25T02:32:56;150260.31;;;24.67;79.96
6938;BME280;40040;42.706;23.372;2022-07-25T02:35:24;150254.06;;;24.64;80.05
6938;BME280;40040;42.706;23.372;2022-07-25T02:37:51;150252.81;;;24.64;79.63
6938;BME280;40040;42.706;23.372;2022-07-25T02:40:18;150252.81;;;24.64;78.96
6938;BME280;40040;42.706;23.372;2022-07-25T02:42:45;150195.53;;;24.40;78.54
6938;BME280;40040;42.706;23.372;2022-07-25T02:45:13;150241.63;;;24.59;79.74
6938;BME280;40040;42.706;23.372;2022-07-25T02:47:40;150235.38;;;24.57;79.67
6938;BME280;40040;42.706;23.372;2022-07-25T02:50:07;150232.88;;;24.56;79.84
6938;BME280;40040;42.706;23.372;2022-07-25T02:52:34;150226.63;;;24.53;80.24
6938;BME280;40040;42.706;23.372;2022-07-25T02:55:01;150209.25;;;24.46;80.54
6938;BME280;40040;42.706;23.372;2022-07-25T02:57:28;150206.72;;;24.45;80.85
6938;BME280;40040;42.706;23.372;2022-07-25T02:59:54;150203.00;;;24.43;80.52
6938;BME280;40040;42.706;23.372;2022-07-25T03:02:23;150196.72;;;24.41;80.50
6938;BME280;40040;42.706;23.372;2022-07-25T03:04:49;150190.53;;;24.38;80.09
6938;BME280;40040;42.706;23.372;2022-07-25T03:07:16;150180.56;;;24.34;80.59
6938;BME280;40040;42.706;23.372;2022-07-25T03:09:43;150085.81;;;23.96;80.63
6938;BME280;40040;42.706;23.372;2022-07-25T03:12:10;150169.34;;;24.30;80.45
6938;BME280;40040;42.706;23.372;2022-07-25T03:14:37;150159.38;;;24.26;80.01
6938;BME280;40040;42.706;23.372;2022-07-25T03:17:03;150153.13;;;24.23;81.19
6938;BME280;40040;42.706;23.372;2022-07-25T03:19:32;150151.91;;;24.23;81.42
6938;BME280;40040;42.706;23.372;2022-07-25T03:21:59;150141.94;;;24.19;82.05
6938;BME280;40040;42.706;23.372;2022-07-25T03:24:25;150138.19;;;24.17;81.99
6938;BME280;40040;42.706;23.372;2022-07-25T03:26:52;150130.75;;;24.14;82.39
6938;BME280;40040;42.706;23.372;2022-07-25T03:29:19;150115.75;;;24.08;82.68
6938;BME280;40040;42.706;23.372;2022-07-25T03:31:46;150100.84;;;24.02;83.04
6938;BME280;40040;42.706;23.372;2022-07-25T03:34:13;150085.81;;;23.96;83.16
6938;BME280;40040;42.706;23.372;2022-07-25T03:36:41;150078.38;;;23.93;83.88
6938;BME280;40040;42.706;23.372;2022-07-25T03:39:08;150069.66;;;23.90;83.92
6938;BME280;40040;42.706;23.372;2022-07-25T03:41:35;150067.13;;;23.89;84.87
6938;BME280;40040;42.706;23.372;2022-07-25T03:44:03;150049.69;;;23.82;85.67
6938;BME280;40040;42.706;23.372;2022-07-25T03:46:30;149948.84;;;23.41;85.37
6938;BME280;40040;42.706;23.372;2022-07-25T03:48:56;150031.03;;;23.74;85.69
6938;BME280;40040;42.706;23.372;2022-07-25T03:51:24;150018.59;;;23.69;85.69
6938;BME280;40040;42.706;23.372;2022-07-25T03:53:52;150023.53;;;23.71;84.55
6938;BME280;40040;42.706;23.372;2022-07-25T03:56:29;150032.25;;;23.75;84.66
6938;BME280;40040;42.706;23.372;2022-07-25T03:58:56;150018.59;;;23.69;84.17
6938;BME280;40040;42.706;23.372;2022-07-25T04:01:23;150038.50;;;23.77;83.48
6938;BME280;40040;42.706;23.372;2022-07-25T04:03:50;150043.47;;;23.79;82.24
6938;BME280;40040;42.706;23.372;2022-07-25T04:06:17;149952.56;;;23.42;82.42
6938;BME280;40040;42.706;23.372;2022-07-25T04:08:44;149989.91;;;23.58;82.87
6938;BME280;40040;42.706;23.372;2022-07-25T04:11:12;150053.47;;;23.83;81.78
6938;BME280;40040;42.706;23.372;2022-07-25T04:13:39;150052.19;;;23.83;81.50
6938;BME280;40040;42.706;23.372;2022-07-25T04:16:07;150062.19;;;23.87;81.06
6938;BME280;40040;42.706;23.372;2022-07-25T04:18:34;150064.66;;;23.88;81.46
6938;BME280;40040;42.706;23.372;2022-07-25T04:21:01;149945.13;;;23.39;81.32
6938;BME280;40040;42.706;23.372;2022-07-25T04:23:29;150065.91;;;23.88;81.11
6938;BME280;40040;42.706;23.372;2022-07-25T04:25:56;150062.19;;;23.87;80.93
6938;BME280;40040;42.706;23.372;2022-07-25T04:28:25;150058.41;;;23.85;80.32
6938;BME280;40040;42.706;23.372;2022-07-25T04:30:52;149989.91;;;23.58;80.77
6938;BME280;40040;42.706;23.372;2022-07-25T04:33:19;150054.66;;;23.84;80.11
6938;BME280;40040;42.706;23.372;2022-07-25T04:35:46;150065.91;;;23.88;79.73
6938;BME280;40040;42.706;23.372;2022-07-25T04:38:14;150063.41;;;23.87;79.54
6938;BME280;40040;42.706;23.372;2022-07-25T04:40:41;150093.34;;;23.99;78.88
6938;BME280;40040;42.706;23.372;2022-07-25T04:43:08;150104.56;;;24.04;78.02
6938;BME280;40040;42.706;23.372;2022-07-25T04:45:36;150118.28;;;24.09;77.78
6938;BME280;40040;42.706;23.372;2022-07-25T04:48:04;150134.47;;;24.16;77.30
6938;BME280;40040;42.706;23.372;2022-07-25T04:50:31;150148.19;;;24.21;76.75
6938;BME280;40040;42.706;23.372;2022-07-25T04:52:58;150153.13;;;24.23;75.30
6938;BME280;40040;42.706;23.372;2022-07-25T04:55:25;150150.66;;;24.22;76.44
6938;BME280;40040;42.706;23.372;2022-07-25T04:57:51;150143.19;;;24.19;75.33
6938;BME280;40040;42.706;23.372;2022-07-25T05:00:18;150135.72;;;24.16;75.87
6938;BME280;40040;42.706;23.372;2022-07-25T05:02:47;150138.19;;;24.17;75.84
6938;BME280;40040;42.706;23.372;2022-07-25T05:05:13;150130.75;;;24.14;75.79
6938;BME280;40040;42.706;23.372;2022-07-25T05:07:40;150125.75;;;24.12;77.05
6938;BME280;40040;42.706;23.372;2022-07-25T05:10:08;150080.84;;;23.94;76.34
6938;BME280;40040;42.706;23.372;2022-07-25T05:12:35;150153.13;;;24.23;74.97
6938;BME280;40040;42.706;23.372;2022-07-25T05:15:02;150138.19;;;24.17;75.84
6938;BME280;40040;42.706;23.372;2022-07-25T05:17:29;150163.09;;;24.27;75.39
6938;BME280;40040;42.706;23.372;2022-07-25T05:19:58;150155.66;;;24.24;77.13
6938;BME280;40040;42.706;23.372;2022-07-25T05:22:25;150180.56;;;24.34;76.40
6938;BME280;40040;42.706;23.372;2022-07-25T05:24:51;150210.44;;;24.46;75.20
6938;BME280;40040;42.706;23.372;2022-07-25T05:27:18;150241.63;;;24.59;73.65
6938;BME280;40040;42.706;23.372;2022-07-25T05:29:45;150271.56;;;24.71;71.95
6938;BME280;40040;42.706;23.372;2022-07-25T05:32:12;150308.94;;;24.86;71.48
6938;BME280;40040;42.706;23.372;2022-07-25T05:34:38;150342.63;;;25.00;71.02
6938;BME280;40040;42.706;23.372;2022-07-25T05:37:07;150370.03;;;25.11;70.51
6938;BME280;40040;42.706;23.372;2022-07-25T05:39:33;150413.66;;;25.28;69.72
6938;BME280;40040;42.706;23.372;2022-07-25T05:42:02;150464.81;;;25.49;67.97
6938;BME280;40040;42.706;23.372;2022-07-25T05:44:28;150502.25;;;25.64;66.69
6938;BME280;40040;42.706;23.372;2022-07-25T05:46:55;150534.66;;;25.77;66.12
6938;BME280;40040;42.706;23.372;2022-07-25T05:49:22;150557.09;;;25.86;65.04
6938;BME280;40040;42.706;23.372;2022-07-25T05:51:50;150582.03;;;25.96;65.33
6938;BME280;40040;42.706;23.372;2022-07-25T05:54:19;150624.53;;;26.13;63.48
6938;BME280;40040;42.706;23.372;2022-07-25T05:56:45;150670.69;;;26.32;62.96
6938;BME280;40040;42.706;23.372;2022-07-25T05:59:12;150705.63;;;26.46;61.88
6938;BME280;40040;42.706;23.372;2022-07-25T06:01:39;150734.28;;;26.57;60.57
6938;BME280;40040;42.706;23.372;2022-07-25T06:04:06;150778.03;;;26.75;60.88
6938;BME280;40040;42.706;23.372;2022-07-25T06:06:33;150768.03;;;26.71;60.68
6938;BME280;40040;42.706;23.372;2022-07-25T06:09:00;150778.03;;;26.75;59.35
6938;BME280;40040;42.706;23.372;2022-07-25T06:11:28;150811.69;;;26.89;59.29
6938;BME280;40040;42.706;23.372;2022-07-25T06:13:56;150869.13;;;27.12;58.95
6938;BME280;40040;42.706;23.372;2022-07-25T06:16:23;150836.69;;;26.99;58.18
6938;BME280;40040;42.706;23.372;2022-07-25T06:18:50;150801.75;;;26.85;57.17
6938;BME280;40040;42.706;23.372;2022-07-25T06:21:17;150864.13;;;27.10;56.43
6938;BME280;40040;42.706;23.372;2022-07-25T06:23:44;151009.00;;;27.68;56.95
6938;BME280;40040;42.706;23.372;2022-07-25T06:26:10;151081.47;;;27.97;55.88
6938;BME280;40040;42.706;23.372;2022-07-25T06:28:39;151055.19;;;27.87;55.10
6938;BME280;40040;42.706;23.372;2022-07-25T06:31:06;151126.44;;;28.15;54.65
6938;BME280;40040;42.706;23.372;2022-07-25T06:33:33;151181.38;;;28.37;53.61
6938;BME280;40040;42.706;23.372;2022-07-25T06:36:00;151248.91;;;28.64;53.27
6938;BME280;40040;42.706;23.372;2022-07-25T06:38:28;151261.41;;;28.69;52.27
6938;BME280;40040;42.706;23.372;2022-07-25T06:40:55;151378.91;;;29.17;51.62
6938;BME280;40040;42.706;23.372;2022-07-25T06:43:22;151435.13;;;29.39;50.90
6938;BME280;40040;42.706;23.372;2022-07-25T06:45:51;151506.41;;;29.68;50.95
6938;BME280;40040;42.706;23.372;2022-07-25T06:48:17;151557.66;;;29.88;49.29
6938;BME280;40040;42.706;23.372;2022-07-25T06:50:45;151583.91;;;29.99;48.80
6938;BME280;40040;42.706;23.372;2022-07-25T06:53:12;151608.97;;;30.09;48.47
6938;BME280;40040;42.706;23.372;2022-07-25T06:55:39;151666.50;;;30.32;48.76
6938;BME280;40040;42.706;23.372;2022-07-25T06:58:06;151681.53;;;30.38;46.97
6938;BME280;40040;42.706;23.372;2022-07-25T07:00:33;151690.28;;;30.42;48.08
6938;BME280;40040;42.706;23.372;2022-07-25T07:03:01;151735.28;;;30.60;47.16
6938;BME280;40040;42.706;23.372;2022-07-25T07:05:30;151791.66;;;30.82;46.69
6938;BME280;40040;42.706;23.372;2022-07-25T07:07:57;151789.13;;;30.81;46.03
6938;BME280;40040;42.706;23.372;2022-07-25T07:10:25;151846.69;;;31.05;46.29
6938;BME280;40040;42.706;23.372;2022-07-25T07:13:01;151911.72;;;31.31;44.77
6938;BME280;40040;42.706;23.372;2022-07-25T07:15:29;151911.72;;;31.31;45.02
6938;BME280;40040;42.706;23.372;2022-07-25T07:17:55;151988.09;;;31.61;44.27
6938;BME280;40040;42.706;23.372;2022-07-25T07:20:24;151996.84;;;31.65;44.39
6938;BME280;40040;42.706;23.372;2022-07-25T07:22:51;151966.81;;;31.53;44.29
6938;BME280;40040;42.706;23.372;2022-07-25T07:25:18;152035.66;;;31.80;44.42
6938;BME280;40040;42.706;23.372;2022-07-25T07:27:48;152090.81;;;32.03;43.51
6938;BME280;40040;42.706;23.372;2022-07-25T07:30:15;152014.38;;;31.72;43.67
6938;BME280;40040;42.706;23.372;2022-07-25T07:32:42;152085.78;;;32.01;42.05
6938;BME280;40040;42.706;23.372;2022-07-25T07:35:09;152178.41;;;32.38;41.24
6938;BME280;40040;42.706;23.372;2022-07-25T07:37:38;152085.78;;;32.01;41.94
6938;BME280;40040;42.706;23.372;2022-07-25T07:40:05;152142.13;;;32.23;42.30
6938;BME280;40040;42.706;23.372;2022-07-25T07:42:37;152219.78;;;32.54;40.81
6938;BME280;40040;42.706;23.372;2022-07-25T07:45:10;152105.78;;;32.09;41.43
6938;BME280;40040;42.706;23.372;2022-07-25T07:47:37;152021.91;;;31.75;42.36
6938;BME280;40040;42.706;23.372;2022-07-25T07:50:06;152038.19;;;31.81;42.62
6938;BME280;40040;42.706;23.372;2022-07-25T07:52:33;152089.53;;;32.02;42.18
6938;BME280;40040;42.706;23.372;2022-07-25T07:55:01;152077.03;;;31.97;42.00
6938;BME280;40040;42.706;23.372;2022-07-25T07:57:45;152189.75;;;32.42;40.43
6938;BME280;40040;42.706;23.372;2022-07-25T08:00:13;152272.38;;;32.75;40.49
6938;BME280;40040;42.706;23.372;2022-07-25T08:02:45;152322.50;;;32.95;39.62
6938;BME280;40040;42.706;23.372;2022-07-25T08:05:13;152358.84;;;33.10;39.35
6938;BME280;40040;42.706;23.372;2022-07-25T08:07:45;152421.50;;;33.35;38.83
6938;BME280;40040;42.706;23.372;2022-07-25T08:10:13;152455.34;;;33.49;38.65
6938;BME280;40040;42.706;23.372;2022-07-25T08:12:40;152513.00;;;33.72;38.58
6938;BME280;40040;42.706;23.372;2022-07-25T08:15:08;152472.88;;;33.56;38.63
6938;BME280;40040;42.706;23.372;2022-07-25T08:17:35;152533.03;;;33.80;38.20
6938;BME280;40040;42.706;23.372;2022-07-25T08:20:03;152573.19;;;33.96;38.37
6938;BME280;40040;42.706;23.372;2022-07-25T08:22:37;152680.94;;;34.39;36.30
6938;BME280;40040;42.706;23.372;2022-07-25T08:25:05;152663.38;;;34.32;37.31
6938;BME280;40040;42.706;23.372;2022-07-25T08:27:34;152704.81;;;34.49;36.93
6938;BME280;40040;42.706;23.372;2022-07-25T08:30:02;152614.50;;;34.13;36.34
6938;BME280;40040;42.706;23.372;2022-07-25T08:32:29;152643.34;;;34.24;36.80
6938;BME280;40040;42.706;23.372;2022-07-25T08:34:56;152531.75;;;33.79;37.06
6938;BME280;40040;42.706;23.372;2022-07-25T08:37:23;152412.72;;;33.32;38.55
6938;BME280;40040;42.706;23.372;2022-07-25T08:39:50;152435.22;;;33.41;38.32
6938;BME280;40040;42.706;23.372;2022-07-25T08:42:18;152684.69;;;34.41;37.21
6938;BME280;40040;42.706;23.372;2022-07-25T08:44:49;152688.44;;;34.42;37.33
6938;BME280;40040;42.706;23.372;2022-07-25T08:47:22;152648.34;;;34.26;37.22
6938;BME280;40040;42.706;23.372;2022-07-25T08:49:49;152704.81;;;34.49;36.73
6938;BME280;40040;42.706;23.372;2022-07-25T08:52:17;152830.22;;;34.99;36.01
6938;BME280;40040;42.706;23.372;2022-07-25T08:54:44;152854.03;;;35.08;35.28
6938;BME280;40040;42.706;23.372;2022-07-25T08:57:11;152950.63;;;35.47;35.91
6938;BME280;40040;42.706;23.372;2022-07-25T08:59:38;153037.16;;;35.82;34.87
6938;BME280;40040;42.706;23.372;2022-07-25T09:02:06;153017.13;;;35.74;34.97
6938;BME280;40040;42.706;23.372;2022-07-25T09:04:35;152989.50;;;35.63;34.86
6938;BME280;40040;42.706;23.372;2022-07-25T09:07:02;152994.53;;;35.65;34.11
6938;BME280;40040;42.706;23.372;2022-07-25T09:09:30;153014.59;;;35.73;34.07
6938;BME280;40040;42.706;23.372;2022-07-25T09:11:57;153022.16;;;35.76;34.54
6938;BME280;40040;42.706;23.372;2022-07-25T09:14:25;152881.63;;;35.20;35.18
6938;BME280;40040;42.706;23.372;2022-07-25T09:16:54;152718.56;;;34.54;35.92
6938;BME280;40040;42.706;23.372;2022-07-25T09:19:24;152687.22;;;34.42;35.25
6938;BME280;40040;42.706;23.372;2022-07-25T09:21:59;152677.19;;;34.38;35.88
6938;BME280;40040;42.706;23.372;2022-07-25T09:24:27;152791.31;;;34.83;35.60
6938;BME280;40040;42.706;23.372;2022-07-25T09:26:56;152954.38;;;35.49;34.70
6938;BME280;40040;42.706;23.372;2022-07-25T09:29:25;153009.56;;;35.71;33.61
6938;BME280;40040;42.706;23.372;2022-07-25T09:31:53;152931.75;;;35.40;34.28
6938;BME280;40040;42.706;23.372;2022-07-25T09:34:33;153027.13;;;35.78;34.48
6938;BME280;40040;42.706;23.372;2022-07-25T09:37:00;153083.66;;;36.00;33.18
6938;BME280;40040;42.706;23.372;2022-07-25T09:39:36;153104.97;;;36.09;32.49
6938;BME280;40040;42.706;23.372;2022-07-25T09:42:16;153109.97;;;36.11;32.99
6938;BME280;40040;42.706;23.372;2022-07-25T09:44:55;153102.44;;;36.08;32.18
6938;BME280;40040;42.706;23.372;2022-07-25T09:47:22;153103.72;;;36.08;32.51
6938;BME280;40040;42.706;23.372;2022-07-25T09:49:51;153097.41;;;36.06;33.96
6938;BME280;40040;42.706;23.372;2022-07-25T09:52:18;153132.56;;;36.20;31.88
6938;BME280;40040;42.706;23.372;2022-07-25T09:54:45;153181.53;;;36.40;32.07
6938;BME280;40040;42.706;23.372;2022-07-25T09:57:12;153130.06;;;36.19;32.41
6938;BME280;40040;42.706;23.372;2022-07-25T09:59:38;153125.03;;;36.17;32.67
6938;BME280;40040;42.706;23.372;2022-07-25T10:02:07;153248.06;;;36.66;30.78
6938;BME280;40040;42.706;23.372;2022-07-25T10:04:44;153330.94;;;36.99;30.45
6938;BME280;40040;42.706;23.372;2022-07-25T10:07:14;153451.47;;;37.48;31.03
6938;BME280;40040;42.706;23.372;2022-07-25T10:09:43;153327.16;;;36.98;29.44
6938;BME280;40040;42.706;23.372;2022-07-25T10:12:12;153428.84;;;37.39;28.88
6938;BME280;40040;42.706;23.372;2022-07-25T10:14:40;153295.78;;;36.85;29.42
6938;BME280;40040;42.706;23.372;2022-07-25T10:17:07;153238.00;;;36.62;30.26
6938;BME280;40040;42.706;23.372;2022-07-25T10:19:38;153094.94;;;36.05;30.89
6938;BME280;40040;42.706;23.372;2022-07-25T10:22:06;153094.94;;;36.05;30.64
6938;BME280;40040;42.706;23.372;2022-07-25T10:24:35;153151.38;;;36.28;30.25
6938;BME280;40040;42.706;23.372;2022-07-25T10:27:07;153222.97;;;36.56;30.58
6938;BME280;40040;42.706;23.372;2022-07-25T10:29:36;153268.09;;;36.74;30.15
6938;BME280;40040;42.706;23.372;2022-07-25T10:32:07;153312.09;;;36.92;29.86
6938;BME280;40040;42.706;23.372;2022-07-25T10:34:34;153381.09;;;37.19;29.33
6938;BME280;40040;42.706;23.372;2022-07-25T10:37:09;153270.66;;;36.75;28.97
6938;BME280;40040;42.706;23.372;2022-07-25T10:39:39;153035.91;;;35.81;29.90
6938;BME280;40040;42.706;23.372;2022-07-25T10:42:07;152806.34;;;34.89;30.85
6938;BME280;40040;42.706;23.372;2022-07-25T10:44:42;152691.03;;;34.43;31.45
6938;BME280;40040;42.706;23.372;2022-07-25T10:47:10;152875.34;;;35.17;31.13
6938;BME280;40040;42.706;23.372;2022-07-25T10:49:39;153024.63;;;35.77;30.01
6938;BME280;40040;42.706;23.372;2022-07-25T10:52:06;153086.16;;;36.01;29.20
6938;BME280;40040;42.706;23.372;2022-07-25T10:54:35;153263.09;;;36.72;28.56
6938;BME280;40040;42.706;23.372;2022-07-25T10:57:05;153353.53;;;37.08;27.93
6938;BME280;40040;42.706;23.372;2022-07-25T10:59:39;153377.34;;;37.18;28.39
6938;BME280;40040;42.706;23.372;2022-07-25T11:02:08;153443.94;;;37.45;28.41
6938;BME280;40040;42.706;23.372;2022-07-25T11:04:41;153520.56;;;37.75;27.61
6938;BME280;40040;42.706;23.372;2022-07-25T11:07:09;153627.34;;;38.18;27.21
6938;BME280;40040;42.706;23.372;2022-07-25T11:09:37;153707.72;;;38.50;26.87
6938;BME280;40040;42.706;23.372;2022-07-25T11:12:06;153671.31;;;38.36;27.10
6938;BME280;40040;42.706;23.372;2022-07-25T11:14:34;153534.38;;;37.81;27.15
6938;BME280;40040;42.706;23.372;2022-07-25T11:17:13;153456.50;;;37.50;27.49
6938;BME280;40040;42.706;23.372;2022-07-25T11:19:42;153401.28;;;37.28;27.52
6938;BME280;40040;42.706;23.372;2022-07-25T11:22:10;153412.56;;;37.32;27.36
6938;BME280;40040;42.706;23.372;2022-07-25T11:24:38;153487.88;;;37.62;26.87
6938;BME280;40040;42.706;23.372;2022-07-25T11:27:07;153518.06;;;37.74;26.86
6938;BME280;40040;42.706;23.372;2022-07-25T11:29:35;153705.22;;;38.49;25.98
6938;BME280;40040;42.706;23.372;2022-07-25T11:32:05;153737.91;;;38.62;27.09
6938;BME280;40040;42.706;23.372;2022-07-25T11:34:34;153544.44;;;37.85;26.57
6938;BME280;40040;42.706;23.372;2022-07-25T11:37:03;153484.13;;;37.61;27.25
6938;BME280;40040;42.706;23.372;2022-07-25T11:39:32;153460.25;;;37.51;26.79
6938;BME280;40040;42.706;23.372;2022-07-25T11:42:02;153454.00;;;37.49;27.98
6938;BME280;40040;42.706;23.372;2022-07-25T11:44:32;153411.28;;;37.32;27.18
6938;BME280;40040;42.706;23.372;2022-07-25T11:46:59;153420.06;;;37.35;27.95
6938;BME280;40040;42.706;23.372;2022-07-25T11:49:26;153499.16;;;37.67;27.13
6938;BME280;40040;42.706;23.372;2022-07-25T11:51:53;153443.94;;;37.45;27.25
6938;BME280;40040;42.706;23.372;2022-07-25T11:54:20;153325.91;;;36.97;27.90
6938;BME280;40040;42.706;23.372;2022-07-25T11:56:48;153318.38;;;36.94;28.21
6938;BME280;40040;42.706;23.372;2022-07-25T11:59:14;153251.81;;;36.68;27.89
6938;BME280;40040;42.706;23.372;2022-07-25T12:01:43;153273.13;;;36.76;27.91
6938;BME280;40040;42.706;23.372;2022-07-25T12:04:13;153255.56;;;36.69;28.51
6938;BME280;40040;42.706;23.372;2022-07-25T12:06:41;153112.50;;;36.12;28.99
6938;BME280;40040;42.706;23.372;2022-07-25T12:09:10;152975.69;;;35.57;29.61
6938;BME280;40040;42.706;23.372;2022-07-25T12:11:37;152806.34;;;34.89;30.31
6938;BME280;40040;42.706;23.372;2022-07-25T12:14:05;152721.09;;;34.55;30.74
6938;BME280;40040;42.706;23.372;2022-07-25T12:16:32;152650.88;;;34.27;31.50
6938;BME280;40040;42.706;23.372;2022-07-25T12:19:01;152670.91;;;34.35;31.31
6938;BME280;40040;42.706;23.372;2022-07-25T12:21:28;152658.38;;;34.30;31.66
6938;BME280;40040;42.706;23.372;2022-07-25T12:23:55;152655.88;;;34.29;31.52
6938;BME280;40040;42.706;23.372;2022-07-25T12:26:22;152548.06;;;33.86;31.26
6938;BME280;40040;42.706;23.372;2022-07-25T12:28:50;152553.06;;;33.88;31.38
6938;BME280;40040;42.706;23.372;2022-07-25T12:31:16;152521.75;;;33.75;33.00
6938;BME280;40040;42.706;23.372;2022-07-25T12:33:43;152504.22;;;33.68;31.99
6938;BME280;40040;42.706;23.372;2022-07-25T12:36:12;152517.97;;;33.74;32.14
6938;BME280;40040;42.706;23.372;2022-07-25T12:38:39;152490.44;;;33.63;32.86
6938;BME280;40040;42.706;23.372;2022-07-25T12:41:06;152507.97;;;33.70;31.58
6938;BME280;40040;42.706;23.372;2022-07-25T12:43:33;152480.41;;;33.59;31.34
6938;BME280;40040;42.706;23.372;2022-07-25T12:46:00;152408.91;;;33.30;31.80
6938;BME280;40040;42.706;23.372;2022-07-25T12:48:27;152472.88;;;33.56;32.04
6938;BME280;40040;42.706;23.372;2022-07-25T12:50:53;152522.97;;;33.76;31.07
6938;BME280;40040;42.706;23.372;2022-07-25T12:53:22;152541.78;;;33.83;31.64